sensor_id;sensor_type;location;lat;lon;timestamp;temperature;humidity
7846;DHT22;3968;51.424;6.788;2022-08-14T00:01:08;24.10;90.40
7846;DHT22;3968;51.424;6.788;2022-08-14T00:03:34;24.10;90.90
7846;DHT22;3968;51.424;6.788;2022-08-14T00:06:02;24.10;92.20
7846;DHT22;3968;51.424;6.788;2022-08-14T00:08:28;24.00;93.70
7846;DHT22;3968;51.424;6.788;2022-08-14T00:10:54;23.90;94.70
7846;DHT22;3968;51.424;6.788;2022-08-14T00:13:21;23.90;95.20
7846;DHT22;3968;51.424;6.788;2022-08-14T00:15:49;23.90;96.30
7846;DHT22;3968;51.424;6.788;2022-08-14T00:18:20;23.80;96.70
7846;DHT22;3968;51.424;6.788;2022-08-14T00:20:46;23.80;97.40
7846;DHT22;3968;51.424;6.788;2022-08-14T00:23:14;23.90;96.50
7846;DHT22;3968;51.424;6.788;2022-08-14T00:25:41;23.90;96.90
7846;DHT22;3968;51.424;6.788;2022-08-14T00:28:09;24.00;97.70
7846;DHT22;3968;51.424;6.788;2022-08-14T00:30:36;23.90;98.00
7846;DHT22;3968;51.424;6.788;2022-08-14T00:33:02;23.90;99.90
7846;DHT22;3968;51.424;6.788;2022-08-14T00:35:29;23.80;99.90
7846;DHT22;3968;51.424;6.788;2022-08-14T00:37:55;23.80;99.90
7846;DHT22;3968;51.424;6.788;2022-08-14T00:40:21;23.80;99.90
7846;DHT22;3968;51.424;6.788;2022-08-14T00:42:47;23.80;99.90
7846;DHT22;3968;51.424;6.788;2022-08-14T00:45:14;23.70;99.90
7846;DHT22;3968;51.424;6.788;2022-08-14T00:47:42;23.70;99.90
7846;DHT22;3968;51.424;6.788;2022-08-14T00:50:10;23.80;99.90
7846;DHT22;3968;51.424;6.788;2022-08-14T00:52:36;23.70;99.90
7846;DHT22;3968;51.424;6.788;2022-08-14T00:55:04;23.60;99.90
7846;DHT22;3968;51.424;6.788;2022-08-14T00:57:32;23.50;99.90
7846;DHT22;3968;51.424;6.788;2022-08-14T01:00:01;23.40;99.90
7846;DHT22;3968;51.424;6.788;2022-08-14T01:02:27;23.40;99.90
7846;DHT22;3968;51.424;6.788;2022-08-14T01:04:56;23.30;99.90
7846;DHT22;3968;51.424;6.788;2022-08-14T01:07:24;23.20;99.90
7846;DHT22;3968;51.424;6.788;2022-08-14T01:09:52;23.20;99.90
7846;DHT22;3968;51.424;6.788;2022-08-14T01:12:20;23.10;99.90
7846;DHT22;3968;51.424;6.788;2022-08-14T01:14:46;23.10;99.90
7846;DHT22;3968;51.424;6.788;2022-08-14T01:17:20;23.00;99.90
7846;DHT22;3968;51.424;6.788;2022-08-14T01:19:46;22.90;99.90
7846;DHT22;3968;51.424;6.788;2022-08-14T01:22:30;22.80;99.90
7846;DHT22;3968;51.424;6.788;2022-08-14T01:24:56;22.70;99.90
7846;DHT22;3968;51.424;6.788;2022-08-14T01:27:22;22.60;99.90
7846;DHT22;3968;51.424;6.788;2022-08-14T01:29:51;22.50;99.90
7846;DHT22;3968;51.424;6.788;2022-08-14T01:32:17;22.40;99.90
7846;DHT22;3968;51.424;6.788;2022-08-14T01:34:47;22.40;99.90
7846;DHT22;3968;51.424;6.788;2022-08-14T01:37:13;22.30;99.90
7846;DHT22;3968;51.424;6.788;2022-08-14T01:39:40;22.30;99.90
7846;DHT22;3968;51.424;6.788;2022-08-14T01:42:06;22.30;99.90
7846;DHT22;3968;51.424;6.788;2022-08-14T01:44:31;22.30;99.90
7846;DHT22;3968;51.424;6.788;2022-08-14T01:46:58;22.40;99.90
7846;DHT22;3968;51.424;6.788;2022-08-14T01:49:25;22.40;99.90
7846;DHT22;3968;51.424;6.788;2022-08-14T01:51:51;22.40;99.90
7846;DHT22;3968;51.424;6.788;2022-08-14T01:54:22;22.50;99.90
7846;DHT22;3968;51.424;6.788;2022-08-14T01:56:53;22.60;99.90
7846;DHT22;3968;51.424;6.788;2022-08-14T01:59:29;22.70;99.90
7846;DHT22;3968;51.424;6.788;2022-08-14T02:02:05;22.70;99.90
7846;DHT22;3968;51.424;6.788;2022-08-14T02:04:40;22.70;99.90
7846;DHT22;3968;51.424;6.788;2022-08-14T02:07:07;22.60;99.90
7846;DHT22;3968;51.424;6.788;2022-08-14T02:09:35;22.60;99.90
7846;DHT22;3968;51.424;6.788;2022-08-14T02:12:05;22.60;99.90
7846;DHT22;3968;51.424;6.788;2022-08-14T02:14:31;22.50;99.90
7846;DHT22;3968;51.424;6.788;2022-08-14T02:16:58;22.50;99.90
7846;DHT22;3968;51.424;6.788;2022-08-14T02:19:26;22.60;99.90
7846;DHT22;3968;51.424;6.788;2022-08-14T02:21:54;22.60;99.90
7846;DHT22;3968;51.424;6.788;2022-08-14T02:24:22;22.50;99.90
7846;DHT22;3968;51.424;6.788;2022-08-14T02:26:48;22.50;99.90
7846;DHT22;3968;51.424;6.788;2022-08-14T02:29:17;22.40;99.90
7846;DHT22;3968;51.424;6.788;2022-08-14T02:31:46;22.30;99.90
7846;DHT22;3968;51.424;6.788;2022-08-14T02:34:34;22.20;99.90
7846;DHT22;3968;51.424;6.788;2022-08-14T02:37:05;22.30;99.90
7846;DHT22;3968;51.424;6.788;2022-08-14T02:39:33;22.30;99.90
7846;DHT22;3968;51.424;6.788;2022-08-14T02:41:59;22.20;99.90
7846;DHT22;3968;51.424;6.788;2022-08-14T02:44:25;22.20;99.90
7846;DHT22;3968;51.424;6.788;2022-08-14T02:46:53;22.20;99.90
7846;DHT22;3968;51.424;6.788;2022-08-14T02:49:23;22.20;99.90
7846;DHT22;3968;51.424;6.788;2022-08-14T02:51:53;22.20;99.90
7846;DHT22;3968;51.424;6.788;2022-08-14T02:54:18;22.30;99.90
7846;DHT22;3968;51.424;6.788;2022-08-14T02:56:44;22.30;99.90
7846;DHT22;3968;51.424;6.788;2022-08-14T02:59:10;22.20;99.90
7846;DHT22;3968;51.424;6.788;2022-08-14T03:01:38;22.10;99.90
7846;DHT22;3968;51.424;6.788;2022-08-14T03:04:05;22.00;99.90
7846;DHT22;3968;51.424;6.788;2022-08-14T03:06:32;22.00;99.90
7846;DHT22;3968;51.424;6.788;2022-08-14T03:08:57;21.90;99.90
7846;DHT22;3968;51.424;6.788;2022-08-14T03:11:24;21.90;99.90
7846;DHT22;3968;51.424;6.788;2022-08-14T03:13:51;21.80;99.90
7846;DHT22;3968;51.424;6.788;2022-08-14T03:16:19;21.80;99.90
7846;DHT22;3968;51.424;6.788;2022-08-14T03:18:47;21.70;99.90
7846;DHT22;3968;51.424;6.788;2022-08-14T03:21:17;21.70;99.90
7846;DHT22;3968;51.424;6.788;2022-08-14T03:23:47;21.70;99.90
7846;DHT22;3968;51.424;6.788;2022-08-14T03:26:18;21.60;99.90
7846;DHT22;3968;51.424;6.788;2022-08-14T03:28:49;21.60;99.90
7846;DHT22;3968;51.424;6.788;2022-08-14T03:31:16;21.50;99.90
7846;DHT22;3968;51.424;6.788;2022-08-14T03:36:16;21.40;99.90
7846;DHT22;3968;51.424;6.788;2022-08-14T03:38:44;21.40;99.90
7846;DHT22;3968;51.424;6.788;2022-08-14T03:41:16;21.20;99.90
7846;DHT22;3968;51.424;6.788;2022-08-14T03:43:48;21.20;99.90
7846;DHT22;3968;51.424;6.788;2022-08-14T03:46:17;21.10;99.90
7846;DHT22;3968;51.424;6.788;2022-08-14T03:48:43;21.20;99.90
7846;DHT22;3968;51.424;6.788;2022-08-14T03:51:11;21.20;99.90
7846;DHT22;3968;51.424;6.788;2022-08-14T03:53:42;21.30;99.90
7846;DHT22;3968;51.424;6.788;2022-08-14T03:56:10;21.40;99.90
7846;DHT22;3968;51.424;6.788;2022-08-14T03:58:45;21.40;99.90
7846;DHT22;3968;51.424;6.788;2022-08-14T04:01:16;21.40;99.90
7846;DHT22;3968;51.424;6.788;2022-08-14T04:03:47;21.40;99.90
7846;DHT22;3968;51.424;6.788;2022-08-14T04:06:13;21.40;99.90
7846;DHT22;3968;51.424;6.788;2022-08-14T04:08:41;21.30;99.90
7846;DHT22;3968;51.424;6.788;2022-08-14T04:11:08;21.30;99.90
7846;DHT22;3968;51.424;6.788;2022-08-14T04:13:37;21.30;99.90
7846;DHT22;3968;51.424;6.788;2022-08-14T04:16:05;21.10;99.90
7846;DHT22;3968;51.424;6.788;2022-08-14T04:18:31;21.00;99.90
7846;DHT22;3968;51.424;6.788;2022-08-14T04:20:57;21.00;99.90
7846;DHT22;3968;51.424;6.788;2022-08-14T04:23:23;21.10;99.90
7846;DHT22;3968;51.424;6.788;2022-08-14T04:25:50;21.20;99.90
7846;DHT22;3968;51.424;6.788;2022-08-14T04:28:19;21.20;99.90
7846;DHT22;3968;51.424;6.788;2022-08-14T04:30:44;21.00;99.90
7846;DHT22;3968;51.424;6.788;2022-08-14T04:33:10;20.90;99.90
7846;DHT22;3968;51.424;6.788;2022-08-14T04:35:37;20.80;99.90
7846;DHT22;3968;51.424;6.788;2022-08-14T04:38:06;20.80;99.90
7846;DHT22;3968;51.424;6.788;2022-08-14T04:40:51;20.70;99.90
7846;DHT22;3968;51.424;6.788;2022-08-14T04:43:36;20.70;99.90
7846;DHT22;3968;51.424;6.788;2022-08-14T04:46:15;20.70;99.90
7846;DHT22;3968;51.424;6.788;2022-08-14T04:48:41;20.70;99.90
7846;DHT22;3968;51.424;6.788;2022-08-14T04:51:09;20.60;99.90
7846;DHT22;3968;51.424;6.788;2022-08-14T04:53:36;20.70;99.90
7846;DHT22;3968;51.424;6.788;2022-08-14T04:56:05;20.80;99.90
7846;DHT22;3968;51.424;6.788;2022-08-14T04:58:32;20.70;99.90
7846;DHT22;3968;51.424;6.788;2022-08-14T05:01:00;20.70;99.90
7846;DHT22;3968;51.424;6.788;2022-08-14T05:03:28;20.70;99.90
7846;DHT22;3968;51.424;6.788;2022-08-14T05:05:56;20.70;99.90
7846;DHT22;3968;51.424;6.788;2022-08-14T05:08:22;20.80;99.90
7846;DHT22;3968;51.424;6.788;2022-08-14T05:10:58;20.80;99.90
7846;DHT22;3968;51.424;6.788;2022-08-14T05:13:27;20.80;99.90
7846;DHT22;3968;51.424;6.788;2022-08-14T05:15:54;20.80;99.90
7846;DHT22;3968;51.424;6.788;2022-08-14T05:18:22;20.80;99.90
7846;DHT22;3968;51.424;6.788;2022-08-14T05:20:50;20.80;99.90
7846;DHT22;3968;51.424;6.788;2022-08-14T05:23:22;20.90;99.90
7846;DHT22;3968;51.424;6.788;2022-08-14T05:25:50;21.00;99.90
7846;DHT22;3968;51.424;6.788;2022-08-14T05:28:21;21.00;99.90
7846;DHT22;3968;51.424;6.788;2022-08-14T05:30:58;21.00;99.90
7846;DHT22;3968;51.424;6.788;2022-08-14T05:33:26;21.10;99.90
7846;DHT22;3968;51.424;6.788;2022-08-14T05:35:57;21.20;99.90
7846;DHT22;3968;51.424;6.788;2022-08-14T05:38:28;21.20;99.90
7846;DHT22;3968;51.424;6.788;2022-08-14T05:41:02;21.30;99.90
7846;DHT22;3968;51.424;6.788;2022-08-14T05:43:28;21.50;99.90
7846;DHT22;3968;51.424;6.788;2022-08-14T05:45:55;21.60;99.90
7846;DHT22;3968;51.424;6.788;2022-08-14T05:48:22;21.70;99.90
7846;DHT22;3968;51.424;6.788;2022-08-14T05:50:49;21.80;99.90
7846;DHT22;3968;51.424;6.788;2022-08-14T05:53:15;22.00;99.90
7846;DHT22;3968;51.424;6.788;2022-08-14T05:55:40;22.10;99.90
7846;DHT22;3968;51.424;6.788;2022-08-14T05:58:07;22.20;99.90
7846;DHT22;3968;51.424;6.788;2022-08-14T06:00:38;22.30;99.90
7846;DHT22;3968;51.424;6.788;2022-08-14T06:03:07;22.40;99.90
7846;DHT22;3968;51.424;6.788;2022-08-14T06:05:33;22.40;99.90
7846;DHT22;3968;51.424;6.788;2022-08-14T06:07:59;22.50;99.90
7846;DHT22;3968;51.424;6.788;2022-08-14T06:10:27;22.60;99.90
7846;DHT22;3968;51.424;6.788;2022-08-14T06:12:53;22.70;99.90
7846;DHT22;3968;51.424;6.788;2022-08-14T06:15:18;22.80;99.90
7846;DHT22;3968;51.424;6.788;2022-08-14T06:17:46;22.80;99.90
7846;DHT22;3968;51.424;6.788;2022-08-14T06:20:13;22.80;99.90
7846;DHT22;3968;51.424;6.788;2022-08-14T06:22:42;22.90;99.90
7846;DHT22;3968;51.424;6.788;2022-08-14T06:25:10;23.00;99.90
7846;DHT22;3968;51.424;6.788;2022-08-14T06:27:55;23.10;99.90
7846;DHT22;3968;51.424;6.788;2022-08-14T06:30:22;23.10;99.90
7846;DHT22;3968;51.424;6.788;2022-08-14T06:32:49;23.10;99.90
7846;DHT22;3968;51.424;6.788;2022-08-14T06:35:16;23.20;99.90
7846;DHT22;3968;51.424;6.788;2022-08-14T06:37:58;23.30;99.90
7846;DHT22;3968;51.424;6.788;2022-08-14T06:40:33;23.30;99.90
7846;DHT22;3968;51.424;6.788;2022-08-14T06:43:08;23.50;99.90
7846;DHT22;3968;51.424;6.788;2022-08-14T06:45:36;23.50;99.90
7846;DHT22;3968;51.424;6.788;2022-08-14T06:48:02;23.60;99.90
7846;DHT22;3968;51.424;6.788;2022-08-14T06:50:28;23.70;99.90
7846;DHT22;3968;51.424;6.788;2022-08-14T06:52:58;23.90;99.90
7846;DHT22;3968;51.424;6.788;2022-08-14T06:55:24;24.00;99.90
7846;DHT22;3968;51.424;6.788;2022-08-14T06:57:51;24.10;99.90
7846;DHT22;3968;51.424;6.788;2022-08-14T07:00:21;24.20;99.90
7846;DHT22;3968;51.424;6.788;2022-08-14T07:02:47;24.30;99.90
7846;DHT22;3968;51.424;6.788;2022-08-14T07:05:32;24.40;99.90
7846;DHT22;3968;51.424;6.788;2022-08-14T07:10:44;24.70;99.90
7846;DHT22;3968;51.424;6.788;2022-08-14T07:13:11;24.80;99.90
7846;DHT22;3968;51.424;6.788;2022-08-14T07:15:37;24.90;99.90
7846;DHT22;3968;51.424;6.788;2022-08-14T07:18:03;24.90;99.90
7846;DHT22;3968;51.424;6.788;2022-08-14T07:20:30;25.00;99.90
7846;DHT22;3968;51.424;6.788;2022-08-14T07:22:55;25.10;99.90
7846;DHT22;3968;51.424;6.788;2022-08-14T07:25:26;25.30;99.90
7846;DHT22;3968;51.424;6.788;2022-08-14T07:27:53;25.30;99.90
7846;DHT22;3968;51.424;6.788;2022-08-14T07:30:20;25.40;99.90
7846;DHT22;3968;51.424;6.788;2022-08-14T07:32:46;25.50;99.90
7846;DHT22;3968;51.424;6.788;2022-08-14T07:35:11;25.60;99.90
7846;DHT22;3968;51.424;6.788;2022-08-14T07:37:37;25.80;99.90
7846;DHT22;3968;51.424;6.788;2022-08-14T07:40:04;25.90;99.90
7846;DHT22;3968;51.424;6.788;2022-08-14T07:42:30;26.10;99.90
7846;DHT22;3968;51.424;6.788;2022-08-14T07:44:57;26.10;99.90
7846;DHT22;3968;51.424;6.788;2022-08-14T07:47:23;26.20;99.90
7846;DHT22;3968;51.424;6.788;2022-08-14T07:50:16;26.30;99.90
7846;DHT22;3968;51.424;6.788;2022-08-14T07:52:43;26.10;99.90
7846;DHT22;3968;51.424;6.788;2022-08-14T07:55:10;26.10;99.90
7846;DHT22;3968;51.424;6.788;2022-08-14T07:57:41;26.20;99.90
7846;DHT22;3968;51.424;6.788;2022-08-14T08:00:10;26.40;99.90
7846;DHT22;3968;51.424;6.788;2022-08-14T08:02:39;26.60;99.90
7846;DHT22;3968;51.424;6.788;2022-08-14T08:05:06;26.70;99.90
7846;DHT22;3968;51.424;6.788;2022-08-14T08:07:33;26.80;99.90
7846;DHT22;3968;51.424;6.788;2022-08-14T08:10:08;26.90;99.90
7846;DHT22;3968;51.424;6.788;2022-08-14T08:12:55;27.10;99.90
7846;DHT22;3968;51.424;6.788;2022-08-14T08:15:26;27.30;99.90
7846;DHT22;3968;51.424;6.788;2022-08-14T08:17:53;27.40;99.90
7846;DHT22;3968;51.424;6.788;2022-08-14T08:20:24;27.50;99.90
7846;DHT22;3968;51.424;6.788;2022-08-14T08:22:51;27.60;99.90
7846;DHT22;3968;51.424;6.788;2022-08-14T08:25:21;27.80;99.90
7846;DHT22;3968;51.424;6.788;2022-08-14T08:28:14;27.90;99.90
7846;DHT22;3968;51.424;6.788;2022-08-14T08:30:46;28.10;99.90
7846;DHT22;3968;51.424;6.788;2022-08-14T08:33:12;28.10;99.90
7846;DHT22;3968;51.424;6.788;2022-08-14T08:35:41;28.00;99.90
7846;DHT22;3968;51.424;6.788;2022-08-14T08:38:15;28.00;99.90
7846;DHT22;3968;51.424;6.788;2022-08-14T08:40:47;28.00;99.90
7846;DHT22;3968;51.424;6.788;2022-08-14T08:45:41;28.10;99.90
7846;DHT22;3968;51.424;6.788;2022-08-14T08:48:07;28.30;99.90
7846;DHT22;3968;51.424;6.788;2022-08-14T08:50:36;28.40;99.90
7846;DHT22;3968;51.424;6.788;2022-08-14T08:53:07;28.30;99.90
7846;DHT22;3968;51.424;6.788;2022-08-14T08:55:38;28.40;99.90
7846;DHT22;3968;51.424;6.788;2022-08-14T08:58:06;28.40;99.90
7846;DHT22;3968;51.424;6.788;2022-08-14T09:00:34;28.40;99.90
7846;DHT22;3968;51.424;6.788;2022-08-14T09:05:35;28.30;99.90
7846;DHT22;3968;51.424;6.788;2022-08-14T09:08:21;28.40;99.90
7846;DHT22;3968;51.424;6.788;2022-08-14T09:10:50;28.60;99.90
7846;DHT22;3968;51.424;6.788;2022-08-14T09:13:16;28.80;99.90
7846;DHT22;3968;51.424;6.788;2022-08-14T09:15:44;28.80;99.90
7846;DHT22;3968;51.424;6.788;2022-08-14T09:18:11;28.80;99.90
7846;DHT22;3968;51.424;6.788;2022-08-14T09:20:39;28.80;99.90
7846;DHT22;3968;51.424;6.788;2022-08-14T09:23:08;29.00;99.90
7846;DHT22;3968;51.424;6.788;2022-08-14T09:25:34;29.30;99.90
7846;DHT22;3968;51.424;6.788;2022-08-14T09:28:02;29.00;99.90
7846;DHT22;3968;51.424;6.788;2022-08-14T09:30:29;29.00;99.90
7846;DHT22;3968;51.424;6.788;2022-08-14T09:33:06;29.10;99.90
7846;DHT22;3968;51.424;6.788;2022-08-14T09:47:18;32.30;98.60
7846;DHT22;3968;51.424;6.788;2022-08-14T09:49:45;33.80;90.40
7846;DHT22;3968;51.424;6.788;2022-08-14T09:52:14;34.80;77.20
7846;DHT22;3968;51.424;6.788;2022-08-14T09:54:43;35.70;68.40
7846;DHT22;3968;51.424;6.788;2022-08-14T09:57:10;36.30;60.00
7846;DHT22;3968;51.424;6.788;2022-08-14T09:59:56;37.00;54.10
7846;DHT22;3968;51.424;6.788;2022-08-14T10:02:24;37.90;50.60
7846;DHT22;3968;51.424;6.788;2022-08-14T10:05:09;38.70;47.80
7846;DHT22;3968;51.424;6.788;2022-08-14T10:07:47;39.40;44.10
7846;DHT22;3968;51.424;6.788;2022-08-14T10:10:38;39.90;39.80
7846;DHT22;3968;51.424;6.788;2022-08-14T10:13:06;40.40;39.00
7846;DHT22;3968;51.424;6.788;2022-08-14T10:15:36;41.00;39.00
7846;DHT22;3968;51.424;6.788;2022-08-14T10:18:13;41.40;38.60
7846;DHT22;3968;51.424;6.788;2022-08-14T10:20:50;41.50;37.10
7846;DHT22;3968;51.424;6.788;2022-08-14T10:23:19;41.30;36.00
7846;DHT22;3968;51.424;6.788;2022-08-14T10:25:51;41.60;34.80
7846;DHT22;3968;51.424;6.788;2022-08-14T10:28:18;41.80;33.90
7846;DHT22;3968;51.424;6.788;2022-08-14T10:30:46;41.90;34.00
7846;DHT22;3968;51.424;6.788;2022-08-14T10:33:32;42.30;34.00
7846;DHT22;3968;51.424;6.788;2022-08-14T10:35:59;43.00;32.00
7846;DHT22;3968;51.424;6.788;2022-08-14T10:38:32;43.90;30.40
7846;DHT22;3968;51.424;6.788;2022-08-14T10:41:13;43.80;30.50
7846;DHT22;3968;51.424;6.788;2022-08-14T10:43:40;44.20;30.20
7846;DHT22;3968;51.424;6.788;2022-08-14T10:46:17;45.10;29.20
7846;DHT22;3968;51.424;6.788;2022-08-14T10:49:03;44.50;28.70
7846;DHT22;3968;51.424;6.788;2022-08-14T10:51:30;44.90;28.50
7846;DHT22;3968;51.424;6.788;2022-08-14T10:54:05;45.50;27.90
7846;DHT22;3968;51.424;6.788;2022-08-14T10:56:32;45.30;27.50
7846;DHT22;3968;51.424;6.788;2022-08-14T10:59:04;45.40;27.20
7846;DHT22;3968;51.424;6.788;2022-08-14T11:01:35;45.70;27.00
7846;DHT22;3968;51.424;6.788;2022-08-14T11:04:01;46.20;26.50
7846;DHT22;3968;51.424;6.788;2022-08-14T11:06:27;46.20;26.40
7846;DHT22;3968;51.424;6.788;2022-08-14T11:08:54;46.40;26.10
7846;DHT22;3968;51.424;6.788;2022-08-14T11:11:21;46.60;25.90
7846;DHT22;3968;51.424;6.788;2022-08-14T11:13:49;47.00;25.60
7846;DHT22;3968;51.424;6.788;2022-08-14T11:16:16;47.50;25.30
7846;DHT22;3968;51.424;6.788;2022-08-14T11:18:44;47.70;24.90
7846;DHT22;3968;51.424;6.788;2022-08-14T11:21:15;47.40;24.80
7846;DHT22;3968;51.424;6.788;2022-08-14T11:23:44;47.30;25.00
7846;DHT22;3968;51.424;6.788;2022-08-14T11:26:15;47.30;24.50
7846;DHT22;3968;51.424;6.788;2022-08-14T11:28:48;46.50;24.30
7846;DHT22;3968;51.424;6.788;2022-08-14T11:31:18;44.50;24.70
7846;DHT22;3968;51.424;6.788;2022-08-14T11:33:48;43.50;26.20
7846;DHT22;3968;51.424;6.788;2022-08-14T11:36:14;44.80;25.70
7846;DHT22;3968;51.424;6.788;2022-08-14T11:38:42;44.90;25.70
7846;DHT22;3968;51.424;6.788;2022-08-14T11:41:10;45.90;25.10
7846;DHT22;3968;51.424;6.788;2022-08-14T11:43:45;46.10;24.90
7846;DHT22;3968;51.424;6.788;2022-08-14T11:46:11;46.40;24.50
7846;DHT22;3968;51.424;6.788;2022-08-14T11:48:48;44.40;25.10
7846;DHT22;3968;51.424;6.788;2022-08-14T11:51:17;44.00;25.80
7846;DHT22;3968;51.424;6.788;2022-08-14T11:53:50;44.60;25.70
7846;DHT22;3968;51.424;6.788;2022-08-14T11:56:16;43.20;25.80
7846;DHT22;3968;51.424;6.788;2022-08-14T11:58:41;43.60;26.10
7846;DHT22;3968;51.424;6.788;2022-08-14T12:01:08;44.60;25.60
7846;DHT22;3968;51.424;6.788;2022-08-14T12:03:42;45.10;25.50
7846;DHT22;3968;51.424;6.788;2022-08-14T12:06:09;46.00;25.20
7846;DHT22;3968;51.424;6.788;2022-08-14T12:08:37;47.00;24.10
7846;DHT22;3968;51.424;6.788;2022-08-14T12:11:04;46.90;24.10
7846;DHT22;3968;51.424;6.788;2022-08-14T12:13:31;47.10;23.90
7846;DHT22;3968;51.424;6.788;2022-08-14T12:16:05;46.70;22.90
7846;DHT22;3968;51.424;6.788;2022-08-14T12:18:33;46.00;23.80
7846;DHT22;3968;51.424;6.788;2022-08-14T12:21:22;46.50;23.60
7846;DHT22;3968;51.424;6.788;2022-08-14T12:24:09;46.40;23.50
7846;DHT22;3968;51.424;6.788;2022-08-14T12:26:35;47.10;23.40
7846;DHT22;3968;51.424;6.788;2022-08-14T12:29:14;45.30;23.50
7846;DHT22;3968;51.424;6.788;2022-08-14T12:31:41;44.40;24.50
7846;DHT22;3968;51.424;6.788;2022-08-14T12:34:11;44.80;24.60
7846;DHT22;3968;51.424;6.788;2022-08-14T12:36:37;44.90;23.60
7846;DHT22;3968;51.424;6.788;2022-08-14T12:39:19;43.10;24.20
7846;DHT22;3968;51.424;6.788;2022-08-14T12:41:50;41.40;25.40
7846;DHT22;3968;51.424;6.788;2022-08-14T12:44:31;40.70;26.40
7846;DHT22;3968;51.424;6.788;2022-08-14T12:47:09;41.30;26.70
7846;DHT22;3968;51.424;6.788;2022-08-14T12:49:37;42.20;26.50
7846;DHT22;3968;51.424;6.788;2022-08-14T12:52:03;43.10;26.00
7846;DHT22;3968;51.424;6.788;2022-08-14T12:54:32;43.50;25.50
7846;DHT22;3968;51.424;6.788;2022-08-14T12:57:05;43.50;25.70
7846;DHT22;3968;51.424;6.788;2022-08-14T12:59:31;43.70;25.30
7846;DHT22;3968;51.424;6.788;2022-08-14T13:01:58;44.00;25.30
7846;DHT22;3968;51.424;6.788;2022-08-14T13:04:24;45.70;24.10
7846;DHT22;3968;51.424;6.788;2022-08-14T13:06:50;45.50;24.20
7846;DHT22;3968;51.424;6.788;2022-08-14T13:09:17;45.60;23.70
7846;DHT22;3968;51.424;6.788;2022-08-14T13:11:44;45.30;23.80
7846;DHT22;3968;51.424;6.788;2022-08-14T13:14:12;43.30;23.70
7846;DHT22;3968;51.424;6.788;2022-08-14T13:16:39;43.30;24.10
7846;DHT22;3968;51.424;6.788;2022-08-14T13:19:12;43.50;24.50
7846;DHT22;3968;51.424;6.788;2022-08-14T13:21:41;43.60;24.40
7846;DHT22;3968;51.424;6.788;2022-08-14T13:24:08;43.50;24.80
7846;DHT22;3968;51.424;6.788;2022-08-14T13:26:44;42.30;24.90
7846;DHT22;3968;51.424;6.788;2022-08-14T13:29:11;40.90;26.30
7846;DHT22;3968;51.424;6.788;2022-08-14T13:31:38;41.20;26.70
7846;DHT22;3968;51.424;6.788;2022-08-14T13:34:07;40.90;26.80
7846;DHT22;3968;51.424;6.788;2022-08-14T13:36:34;40.40;27.10
7846;DHT22;3968;51.424;6.788;2022-08-14T13:38:59;40.80;26.80
7846;DHT22;3968;51.424;6.788;2022-08-14T13:41:28;40.80;26.50
7846;DHT22;3968;51.424;6.788;2022-08-14T13:43:54;39.60;27.40
7846;DHT22;3968;51.424;6.788;2022-08-14T13:46:21;39.10;28.00
7846;DHT22;3968;51.424;6.788;2022-08-14T13:48:47;39.40;27.90
7846;DHT22;3968;51.424;6.788;2022-08-14T13:51:16;39.40;28.00
7846;DHT22;3968;51.424;6.788;2022-08-14T13:53:47;39.70;27.70
7846;DHT22;3968;51.424;6.788;2022-08-14T13:56:14;39.90;27.20
7846;DHT22;3968;51.424;6.788;2022-08-14T13:58:44;39.30;26.80
7846;DHT22;3968;51.424;6.788;2022-08-14T14:01:15;38.30;27.80
7846;DHT22;3968;51.424;6.788;2022-08-14T14:03:45;37.20;28.90
7846;DHT22;3968;51.424;6.788;2022-08-14T14:06:14;36.60;29.70
7846;DHT22;3968;51.424;6.788;2022-08-14T14:08:47;36.40;30.00
7846;DHT22;3968;51.424;6.788;2022-08-14T14:11:17;36.00;30.40
7846;DHT22;3968;51.424;6.788;2022-08-14T14:13:51;35.80;31.50
7846;DHT22;3968;51.424;6.788;2022-08-14T14:16:18;35.70;31.70
7846;DHT22;3968;51.424;6.788;2022-08-14T14:18:47;35.50;32.10
7846;DHT22;3968;51.424;6.788;2022-08-14T14:21:24;35.40;32.60
7846;DHT22;3968;51.424;6.788;2022-08-14T14:23:54;35.70;32.80
7846;DHT22;3968;51.424;6.788;2022-08-14T14:26:20;35.70;33.10
7846;DHT22;3968;51.424;6.788;2022-08-14T14:28:48;35.60;33.50
7846;DHT22;3968;51.424;6.788;2022-08-14T14:31:22;35.20;33.80
7846;DHT22;3968;51.424;6.788;2022-08-14T14:33:50;34.70;34.50
7846;DHT22;3968;51.424;6.788;2022-08-14T14:36:21;34.70;34.80
7846;DHT22;3968;51.424;6.788;2022-08-14T14:38:55;34.70;35.00
7846;DHT22;3968;51.424;6.788;2022-08-14T14:41:23;34.70;35.40
7846;DHT22;3968;51.424;6.788;2022-08-14T14:43:50;34.60;35.60
7846;DHT22;3968;51.424;6.788;2022-08-14T14:46:21;34.60;36.10
7846;DHT22;3968;51.424;6.788;2022-08-14T14:48:47;34.70;36.10
7846;DHT22;3968;51.424;6.788;2022-08-14T14:51:15;34.70;36.70
7846;DHT22;3968;51.424;6.788;2022-08-14T14:53:43;34.60;36.00
7846;DHT22;3968;51.424;6.788;2022-08-14T14:56:09;34.50;36.40
7846;DHT22;3968;51.424;6.788;2022-08-14T14:58:36;34.50;36.30
7846;DHT22;3968;51.424;6.788;2022-08-14T15:01:04;34.30;36.30
7846;DHT22;3968;51.424;6.788;2022-08-14T15:03:30;34.30;36.30
7846;DHT22;3968;51.424;6.788;2022-08-14T15:05:57;34.10;37.00
7846;DHT22;3968;51.424;6.788;2022-08-14T15:08:24;33.90;37.00
7846;DHT22;3968;51.424;6.788;2022-08-14T15:10:50;33.90;37.00
7846;DHT22;3968;51.424;6.788;2022-08-14T15:13:17;33.90;37.40
7846;DHT22;3968;51.424;6.788;2022-08-14T15:15:43;33.90;37.00
7846;DHT22;3968;51.424;6.788;2022-08-14T15:18:09;33.90;37.40
7846;DHT22;3968;51.424;6.788;2022-08-14T15:20:34;34.10;37.40
7846;DHT22;3968;51.424;6.788;2022-08-14T15:23:00;34.30;37.60
7846;DHT22;3968;51.424;6.788;2022-08-14T15:25:26;34.40;37.10
7846;DHT22;3968;51.424;6.788;2022-08-14T15:27:59;34.50;37.80
7846;DHT22;3968;51.424;6.788;2022-08-14T15:30:26;34.40;37.60
7846;DHT22;3968;51.424;6.788;2022-08-14T15:32:54;34.30;37.80
7846;DHT22;3968;51.424;6.788;2022-08-14T15:35:21;34.40;37.60
7846;DHT22;3968;51.424;6.788;2022-08-14T15:37:50;34.40;37.40
7846;DHT22;3968;51.424;6.788;2022-08-14T15:40:16;34.30;37.20
7846;DHT22;3968;51.424;6.788;2022-08-14T15:42:43;34.50;37.30
7846;DHT22;3968;51.424;6.788;2022-08-14T15:45:09;34.80;36.90
7846;DHT22;3968;51.424;6.788;2022-08-14T15:47:36;35.00;37.10
7846;DHT22;3968;51.424;6.788;2022-08-14T15:50:05;34.90;36.50
7846;DHT22;3968;51.424;6.788;2022-08-14T15:52:33;34.80;36.80
7846;DHT22;3968;51.424;6.788;2022-08-14T15:55:06;35.00;36.60
7846;DHT22;3968;51.424;6.788;2022-08-14T15:57:33;35.20;36.30
7846;DHT22;3968;51.424;6.788;2022-08-14T15:59:58;35.20;36.30
7846;DHT22;3968;51.424;6.788;2022-08-14T16:02:42;35.20;36.00
7846;DHT22;3968;51.424;6.788;2022-08-14T16:05:08;34.80;36.40
7846;DHT22;3968;51.424;6.788;2022-08-14T16:07:33;34.20;37.40
7846;DHT22;3968;51.424;6.788;2022-08-14T16:09:59;33.70;38.30
7846;DHT22;3968;51.424;6.788;2022-08-14T16:12:25;33.50;38.20
7846;DHT22;3968;51.424;6.788;2022-08-14T16:14:54;33.10;39.10
7846;DHT22;3968;51.424;6.788;2022-08-14T16:17:21;33.00;39.40
7846;DHT22;3968;51.424;6.788;2022-08-14T16:19:47;32.90;39.10
7846;DHT22;3968;51.424;6.788;2022-08-14T16:22:14;32.90;39.80
7846;DHT22;3968;51.424;6.788;2022-08-14T16:24:41;32.90;39.10
7846;DHT22;3968;51.424;6.788;2022-08-14T16:27:09;32.90;39.70
7846;DHT22;3968;51.424;6.788;2022-08-14T16:29:38;32.80;39.70
7846;DHT22;3968;51.424;6.788;2022-08-14T16:32:05;32.70;40.20
7846;DHT22;3968;51.424;6.788;2022-08-14T16:34:37;32.60;41.10
7846;DHT22;3968;51.424;6.788;2022-08-14T16:37:09;32.60;41.80